createdAt,value
2017-08-01T00:00:26.922Z,1004.96
2017-08-01T00:01:26.915Z,1004.94
2017-08-01T00:02:26.907Z,1004.89
2017-08-01T00:03:26.898Z,1004.91
2017-08-01T00:04:26.886Z,1004.97
2017-08-01T00:05:26.878Z,1004.99
2017-08-01T00:06:26.869Z,1004.98
2017-08-01T00:07:26.862Z,1004.93
2017-08-01T00:08:26.852Z,1004.78
2017-08-01T00:09:26.842Z,1004.69
2017-08-01T00:10:26.835Z,1004.68
2017-08-01T00:11:26.827Z,1004.74
2017-08-01T00:12:26.815Z,1004.79
2017-08-01T00:13:26.807Z,1004.81
2017-08-01T00:14:26.800Z,1004.76
2017-08-01T00:15:26.792Z,1004.72
2017-08-01T00:16:26.781Z,1004.68
2017-08-01T00:17:26.774Z,1004.7
2017-08-01T00:18:26.766Z,1004.73
2017-08-01T00:19:26.762Z,1004.73
2017-08-01T00:20:26.744Z,1004.68
2017-08-01T00:21:26.736Z,1004.61
2017-08-01T00:22:26.729Z,1004.47
2017-08-01T00:23:26.719Z,1004.43
2017-08-01T00:24:26.712Z,1004.39
2017-08-01T00:25:26.700Z,1004.34
2017-08-01T00:26:26.691Z,1004.35
2017-08-01T00:27:26.682Z,1004.32
2017-08-01T00:28:26.677Z,1004.28
2017-08-01T00:29:26.670Z,1004.29
2017-08-01T00:30:26.658Z,1004.19
2017-08-01T00:31:26.648Z,1004.01
2017-08-01T00:32:26.641Z,1003.87
2017-08-01T00:33:26.630Z,1003.76
2017-08-01T00:34:26.622Z,1003.8
2017-08-01T00:35:26.613Z,1003.87
2017-08-01T00:36:26.605Z,1004.01
2017-08-01T00:37:26.597Z,1004.06
2017-08-01T00:38:26.584Z,1004.15
2017-08-01T00:39:26.577Z,1004.17
2017-08-01T00:40:26.568Z,1004.31
2017-08-01T00:41:26.556Z,1004.42
2017-08-01T00:42:26.550Z,1004.48
2017-08-01T00:43:26.544Z,1004.53
2017-08-01T00:44:26.532Z,1004.53
2017-08-01T00:45:26.527Z,1004.49
2017-08-01T00:46:26.514Z,1004.48
2017-08-01T00:47:26.505Z,1004.5
2017-08-01T00:48:26.501Z,1004.5
2017-08-01T00:49:26.486Z,1004.48
2017-08-01T00:50:26.477Z,1004.41
2017-08-01T00:51:26.469Z,1004.35
2017-08-01T00:52:26.460Z,1004.25
2017-08-01T00:53:26.451Z,1004.17
2017-08-01T00:54:26.442Z,1004.07
2017-08-01T00:55:26.457Z,1004.05
2017-08-01T00:56:26.422Z,1004.02
2017-08-01T00:57:26.414Z,1004.04
2017-08-01T00:58:26.405Z,1004.11
2017-08-01T00:59:26.394Z,1004.16
2017-08-01T01:00:26.386Z,1004.2
2017-08-01T01:01:26.379Z,1004.21
2017-08-01T01:02:26.368Z,1004.17
2017-08-01T01:03:26.358Z,1004.17
2017-08-01T01:04:26.350Z,1004.26
2017-08-01T01:05:26.344Z,1004.33
2017-08-01T01:06:26.332Z,1004.32
2017-08-01T01:07:26.322Z,1004.38
2017-08-01T01:08:26.321Z,1004.37
2017-08-01T01:09:26.318Z,1004.42
2017-08-01T01:10:26.295Z,1004.42
2017-08-01T01:11:26.288Z,1004.41
2017-08-01T01:12:26.277Z,1004.49
2017-08-01T01:13:26.267Z,1004.46
2017-08-01T01:14:26.259Z,1004.48
2017-08-01T01:15:26.251Z,1004.51
2017-08-01T01:16:26.239Z,1004.59
2017-08-01T01:17:26.231Z,1004.64
2017-08-01T01:18:26.221Z,1004.68
2017-08-01T01:19:26.213Z,1004.67
2017-08-01T01:20:26.209Z,1004.69
2017-08-01T01:21:26.195Z,1004.74
2017-08-01T01:22:26.390Z,1004.8
2017-08-01T01:23:26.176Z,1004.87
2017-08-01T01:24:26.165Z,1004.9
2017-08-01T01:25:26.158Z,1004.88
2017-08-01T01:26:26.147Z,1004.92
2017-08-01T01:27:26.138Z,1004.96
2017-08-01T01:28:26.131Z,1004.97
2017-08-01T01:29:26.120Z,1004.93
2017-08-01T01:30:26.110Z,1004.96
2017-08-01T01:31:26.103Z,1004.94
2017-08-01T01:32:26.092Z,1004.94
2017-08-01T01:33:26.085Z,1004.96
2017-08-01T01:34:26.073Z,1004.99
2017-08-01T01:35:26.063Z,1005
2017-08-01T01:36:26.055Z,1004.95
2017-08-01T01:37:26.045Z,1004.95
2017-08-01T01:38:26.044Z,1005.01
2017-08-01T01:39:26.025Z,1005.05
2017-08-01T01:40:26.019Z,1005.04
2017-08-01T01:41:26.008Z,1005.07
2017-08-01T01:42:25.999Z,1005.1
2017-08-01T01:43:25.987Z,1005.13
2017-08-01T01:44:25.978Z,1005.16
2017-08-01T01:45:25.969Z,1005.17
2017-08-01T01:46:25.961Z,1005.21
2017-08-01T01:47:25.950Z,1005.22
2017-08-01T01:48:25.945Z,1005.22
2017-08-01T01:49:25.934Z,1005.19
2017-08-01T01:50:25.922Z,1005.15
2017-08-01T01:51:25.912Z,1005.12
2017-08-01T01:52:25.904Z,1005.1
2017-08-01T01:53:25.895Z,1005.11
2017-08-01T01:54:25.884Z,1005.12
2017-08-01T01:55:25.874Z,1005.14
2017-08-01T01:56:25.865Z,1005.12
2017-08-01T01:57:25.855Z,1005.12
2017-08-01T01:58:25.844Z,1005.18
2017-08-01T01:59:25.835Z,1005.2
2017-08-01T02:00:25.827Z,1005.19
2017-08-01T02:01:25.817Z,1005.17
2017-08-01T02:02:25.805Z,1005.17
2017-08-01T02:03:25.796Z,1005.19
2017-08-01T02:04:25.787Z,1005.19
2017-08-01T02:05:25.777Z,1005.18
2017-08-01T02:06:25.771Z,1005.18
2017-08-01T02:07:25.758Z,1005.14
2017-08-01T02:08:25.748Z,1005.13
2017-08-01T02:09:25.738Z,1005.08
2017-08-01T02:10:25.729Z,1005.1
2017-08-01T02:11:25.720Z,1005
2017-08-01T02:12:25.710Z,1004.99
2017-08-01T02:13:25.703Z,1004.97
2017-08-01T02:14:25.691Z,1004.97
2017-08-01T02:15:25.680Z,1004.98
2017-08-01T02:16:25.670Z,1004.97
2017-08-01T02:17:25.661Z,1004.99
2017-08-01T02:18:25.655Z,1004.97
2017-08-01T02:19:25.646Z,1004.95
2017-08-01T02:20:25.630Z,1004.98
2017-08-01T02:21:25.622Z,1004.96
2017-08-01T02:22:25.612Z,1004.97
2017-08-01T02:23:25.601Z,1004.91
2017-08-01T02:24:25.592Z,1004.9
2017-08-01T02:25:25.585Z,1004.93
2017-08-01T02:26:25.573Z,1004.9
2017-08-01T02:27:25.563Z,1004.9
2017-08-01T02:28:25.553Z,1004.93
2017-08-01T02:29:25.545Z,1004.98
2017-08-01T02:30:25.553Z,1005.01
2017-08-01T02:31:25.523Z,1004.95
2017-08-01T02:32:25.515Z,1004.96
2017-08-01T02:33:25.508Z,1004.98
2017-08-01T02:34:25.494Z,1005.01
2017-08-01T02:35:25.483Z,1004.98
2017-08-01T02:36:25.476Z,1005.03
2017-08-01T02:37:25.469Z,1005.02
2017-08-01T02:38:25.477Z,1005.04
2017-08-01T02:39:25.446Z,1005
2017-08-01T02:40:25.434Z,1004.96
2017-08-01T02:41:25.427Z,1004.98
2017-08-01T02:42:25.424Z,1005.01
2017-08-01T02:43:25.406Z,1005.01
2017-08-01T02:44:25.397Z,1005.02
2017-08-01T02:45:25.384Z,1005.02
2017-08-01T02:46:25.374Z,1005.01
2017-08-01T02:47:25.364Z,1004.99
2017-08-01T02:48:25.357Z,1004.99
2017-08-01T02:49:25.344Z,1004.94
2017-08-01T02:50:25.337Z,1004.91
2017-08-01T02:51:25.326Z,1004.89
2017-08-01T02:52:25.315Z,1004.82
2017-08-01T02:53:25.305Z,1004.83
2017-08-01T02:54:25.295Z,1004.82
2017-08-01T02:55:25.286Z,1004.8
2017-08-01T02:56:25.275Z,1004.78
2017-08-01T02:57:25.264Z,1004.77
2017-08-01T02:58:25.254Z,1004.78
2017-08-01T02:59:25.244Z,1004.74
2017-08-01T03:00:25.232Z,1004.72
2017-08-01T03:01:25.223Z,1004.72
2017-08-01T03:02:25.216Z,1004.7
2017-08-01T03:03:25.204Z,1004.65
2017-08-01T03:04:25.192Z,1004.64
2017-08-01T03:05:25.182Z,1004.59
2017-08-01T03:06:25.173Z,1004.6
2017-08-01T03:07:25.161Z,1004.63
2017-08-01T03:08:25.151Z,1004.65
2017-08-01T03:09:25.146Z,1004.66
2017-08-01T03:10:25.132Z,1004.64
2017-08-01T03:11:25.120Z,1004.68
2017-08-01T03:12:25.109Z,1004.66
2017-08-01T03:13:25.100Z,1004.63
2017-08-01T03:14:25.089Z,1004.61
2017-08-01T03:15:25.081Z,1004.62
2017-08-01T03:16:25.069Z,1004.62
2017-08-01T03:17:25.060Z,1004.59
2017-08-01T03:18:25.049Z,1004.58
2017-08-01T03:19:25.038Z,1004.58
2017-08-01T03:20:25.027Z,1004.55
2017-08-01T03:21:25.018Z,1004.62
2017-08-01T03:22:25.214Z,1004.63
2017-08-01T03:23:24.999Z,1004.64
2017-08-01T03:24:24.986Z,1004.72
2017-08-01T03:25:24.975Z,1004.74
2017-08-01T03:26:24.965Z,1004.81
2017-08-01T03:27:24.954Z,1004.77
2017-08-01T03:28:24.946Z,1004.72
2017-08-01T03:29:24.933Z,1004.67
2017-08-01T03:30:24.924Z,1004.7
2017-08-01T03:31:24.912Z,1004.65
2017-08-01T03:32:24.910Z,1004.62
2017-08-01T03:33:24.892Z,1004.6
2017-08-01T03:34:24.882Z,1004.58
2017-08-01T03:35:24.874Z,1004.59
2017-08-01T03:36:24.863Z,1004.56
2017-08-01T03:37:24.850Z,1004.55
2017-08-01T03:38:24.840Z,1004.61
2017-08-01T03:39:24.831Z,1004.62
2017-08-01T03:40:24.818Z,1004.56
2017-08-01T03:41:24.809Z,1004.6
2017-08-01T03:42:24.797Z,1004.57
2017-08-01T03:43:24.789Z,1004.58
2017-08-01T03:44:24.776Z,1004.58
2017-08-01T03:45:24.769Z,1004.55
2017-08-01T03:46:24.757Z,1004.49
2017-08-01T03:47:24.743Z,1004.56
2017-08-01T03:48:24.733Z,1004.57
2017-08-01T03:49:24.728Z,1004.6
2017-08-01T03:50:24.713Z,1004.61
2017-08-01T03:51:24.701Z,1004.64
2017-08-01T03:52:24.693Z,1004.69
2017-08-01T03:53:24.680Z,1004.66
2017-08-01T03:54:24.691Z,1004.67
2017-08-01T03:55:24.659Z,1004.68
2017-08-01T03:56:24.649Z,1004.68
2017-08-01T03:57:24.640Z,1004.67
2017-08-01T03:58:24.627Z,1004.68
2017-08-01T03:59:24.619Z,1004.7
2017-08-01T04:00:24.608Z,1004.68
2017-08-01T04:01:24.598Z,1004.69
2017-08-01T04:02:24.587Z,1004.71
2017-08-01T04:03:24.575Z,1004.73
2017-08-01T04:04:24.565Z,1004.66
2017-08-01T04:05:24.555Z,1004.66
2017-08-01T04:06:24.542Z,1004.67
2017-08-01T04:07:24.536Z,1004.65
2017-08-01T04:08:24.524Z,1004.63
2017-08-01T04:09:24.512Z,1004.65
2017-08-01T04:10:24.508Z,1004.6
2017-08-01T04:11:24.491Z,1004.61
2017-08-01T04:12:24.481Z,1004.66
2017-08-01T04:13:24.469Z,1004.7
2017-08-01T04:14:24.458Z,1004.72
2017-08-01T04:15:24.450Z,1004.72
2017-08-01T04:16:24.439Z,1004.72
2017-08-01T04:17:24.432Z,1004.7
2017-08-01T04:18:24.415Z,1004.68
2017-08-01T04:19:24.405Z,1004.64
2017-08-01T04:20:24.395Z,1004.61
2017-08-01T04:21:24.384Z,1004.62
2017-08-01T04:22:24.375Z,1004.58
2017-08-01T04:23:24.363Z,1004.55
2017-08-01T04:24:24.353Z,1004.49
2017-08-01T04:25:24.340Z,1004.47
2017-08-01T04:26:24.330Z,1004.45
2017-08-01T04:27:24.319Z,1004.46
2017-08-01T04:28:24.310Z,1004.48
2017-08-01T04:29:24.298Z,1004.47
2017-08-01T04:30:24.288Z,1004.44
2017-08-01T04:31:24.282Z,1004.47
2017-08-01T04:32:24.266Z,1004.45
2017-08-01T04:33:24.257Z,1004.44
2017-08-01T04:34:24.246Z,1004.43
2017-08-01T04:35:24.237Z,1004.41
2017-08-01T04:36:24.227Z,1004.39
2017-08-01T04:37:24.215Z,1004.34
2017-08-01T04:38:24.208Z,1004.33
2017-08-01T04:39:24.198Z,1004.36
2017-08-01T04:40:24.183Z,1004.41
2017-08-01T04:41:24.171Z,1004.45
2017-08-01T04:42:24.162Z,1004.51
2017-08-01T04:43:24.151Z,1004.5
2017-08-01T04:44:24.141Z,1004.53
2017-08-01T04:45:24.130Z,1004.55
2017-08-01T04:46:24.121Z,1004.54
2017-08-01T04:47:24.108Z,1004.53
2017-08-01T04:48:24.102Z,1004.55
2017-08-01T04:49:24.088Z,1004.58
2017-08-01T04:50:24.078Z,1004.58
2017-08-01T04:51:24.068Z,1004.57
2017-08-01T04:52:24.062Z,1004.52
2017-08-01T04:53:24.049Z,1004.52
2017-08-01T04:54:24.038Z,1004.55
2017-08-01T04:55:24.029Z,1004.58
2017-08-01T04:56:24.017Z,1004.62
2017-08-01T04:57:24.009Z,1004.62
2017-08-01T04:58:23.996Z,1004.63
2017-08-01T04:59:23.986Z,1004.65
2017-08-01T05:00:23.975Z,1004.61
2017-08-01T05:01:23.964Z,1004.6
2017-08-01T05:02:23.955Z,1004.62
2017-08-01T05:03:23.946Z,1004.63
2017-08-01T05:04:23.934Z,1004.6
2017-08-01T05:05:23.925Z,1004.66
2017-08-01T05:06:23.914Z,1004.64
2017-08-01T05:07:23.904Z,1004.65
2017-08-01T05:08:23.892Z,1004.64
2017-08-01T05:09:23.884Z,1004.67
2017-08-01T05:10:23.874Z,1004.74
2017-08-01T05:11:23.912Z,1004.71
2017-08-01T05:12:23.852Z,1004.69
2017-08-01T05:13:23.842Z,1004.71
2017-08-01T05:14:23.832Z,1004.7
2017-08-01T05:15:23.823Z,1004.71
2017-08-01T05:16:23.811Z,1004.71
2017-08-01T05:17:23.802Z,1004.76
2017-08-01T05:18:23.792Z,1004.75
2017-08-01T05:19:23.782Z,1004.81
2017-08-01T05:20:23.772Z,1004.8
2017-08-01T05:21:23.761Z,1004.81
2017-08-01T05:22:23.952Z,1004.8
2017-08-01T05:23:23.739Z,1004.76
2017-08-01T05:24:23.731Z,1004.8
2017-08-01T05:25:23.720Z,1004.81
2017-08-01T05:26:23.709Z,1004.82
2017-08-01T05:27:23.700Z,1004.84
2017-08-01T05:28:23.691Z,1004.88
2017-08-01T05:29:23.681Z,1004.97
2017-08-01T05:30:23.672Z,1004.98
2017-08-01T05:31:23.665Z,1005.02
2017-08-01T05:32:23.650Z,1005.03
2017-08-01T05:33:23.640Z,1005.04
2017-08-01T05:34:23.628Z,1005.07
2017-08-01T05:35:23.620Z,1005.09
2017-08-01T05:36:23.608Z,1005.08
2017-08-01T05:37:23.599Z,1005.1
2017-08-01T05:38:23.588Z,1005.11
2017-08-01T05:39:23.580Z,1005.11
2017-08-01T05:40:23.570Z,1005.06
2017-08-01T05:41:23.559Z,1005.07
2017-08-01T05:42:23.549Z,1005.1
2017-08-01T05:43:23.539Z,1005.11
2017-08-01T05:44:23.528Z,1005.17
2017-08-01T05:45:23.518Z,1005.18
2017-08-01T05:46:23.509Z,1005.13
2017-08-01T05:47:23.498Z,1005.07
2017-08-01T05:48:23.490Z,1005.01
2017-08-01T05:49:23.478Z,1004.9
2017-08-01T05:50:23.469Z,1004.91
2017-08-01T05:51:23.459Z,1004.96
2017-08-01T05:52:23.450Z,1005.04
2017-08-01T05:53:23.438Z,1005.12
2017-08-01T05:54:23.430Z,1005.19
2017-08-01T05:55:23.420Z,1005.21
2017-08-01T05:56:23.408Z,1005.23
2017-08-01T05:57:23.399Z,1005.21
2017-08-01T05:58:23.390Z,1005.2
2017-08-01T05:59:23.381Z,1005.21
2017-08-01T06:00:23.372Z,1005.13
2017-08-01T06:01:23.359Z,1005.11
2017-08-01T06:02:23.351Z,1005.08
2017-08-01T06:03:23.339Z,1005.08
2017-08-01T06:04:23.328Z,1005.09
2017-08-01T06:05:23.323Z,1005.09
2017-08-01T06:06:23.309Z,1005.12
2017-08-01T06:07:23.302Z,1005.08
2017-08-01T06:08:23.291Z,1005.16
2017-08-01T06:09:23.278Z,1005.12
2017-08-01T06:10:23.289Z,1005.11
2017-08-01T06:11:23.259Z,1005.1
2017-08-01T06:12:23.249Z,1005.15
2017-08-01T06:13:23.239Z,1005.14
2017-08-01T06:14:23.231Z,1005.16
2017-08-01T06:15:23.220Z,1005.15
2017-08-01T06:16:23.211Z,1005.14
2017-08-01T06:17:23.201Z,1005.09
2017-08-01T06:18:23.191Z,1005.16
2017-08-01T06:19:23.181Z,1005.15
2017-08-01T06:20:23.171Z,1005.2
2017-08-01T06:21:23.162Z,1005.25
2017-08-01T06:22:23.151Z,1005.25
2017-08-01T06:23:23.142Z,1005.25
2017-08-01T06:24:23.132Z,1005.29
2017-08-01T06:25:23.123Z,1005.25
2017-08-01T06:26:23.115Z,1005.29
2017-08-01T06:27:23.102Z,1005.33
2017-08-01T06:28:23.093Z,1005.35
2017-08-01T06:29:23.083Z,1005.37
2017-08-01T06:30:23.076Z,1005.4
2017-08-01T06:31:23.065Z,1005.42
2017-08-01T06:32:23.057Z,1005.42
2017-08-01T06:33:23.048Z,1005.46
2017-08-01T06:34:23.035Z,1005.47
2017-08-01T06:35:23.026Z,1005.48
2017-08-01T06:36:23.016Z,1005.47
2017-08-01T06:37:23.006Z,1005.48
2017-08-01T06:38:22.998Z,1005.5
2017-08-01T06:39:22.990Z,1005.51
2017-08-01T06:40:22.981Z,1005.55
2017-08-01T06:41:22.977Z,1005.58
2017-08-01T06:42:22.966Z,1005.6
2017-08-01T06:43:22.951Z,1005.68
2017-08-01T06:44:22.945Z,1005.69
2017-08-01T06:45:22.932Z,1005.71
2017-08-01T06:46:22.923Z,1005.78
2017-08-01T06:47:22.915Z,1005.81
2017-08-01T06:48:22.910Z,1005.86
2017-08-01T06:49:22.896Z,1005.91
2017-08-01T06:50:22.887Z,1005.93
2017-08-01T06:51:22.882Z,1005.98
2017-08-01T06:52:22.873Z,1006.01
2017-08-01T06:53:22.860Z,1005.99
2017-08-01T06:54:22.851Z,1005.95
2017-08-01T06:55:22.846Z,1005.91
2017-08-01T06:56:22.834Z,1005.89
2017-08-01T06:57:22.826Z,1005.87
2017-08-01T06:58:22.816Z,1005.91
2017-08-01T06:59:22.808Z,1005.91
2017-08-01T07:00:22.800Z,1005.9
2017-08-01T07:01:22.789Z,1005.93
2017-08-01T07:02:22.782Z,1005.93
2017-08-01T07:03:22.774Z,1005.91
2017-08-01T07:04:22.788Z,1005.91
2017-08-01T07:05:22.757Z,1005.93
2017-08-01T07:06:22.749Z,1005.9
2017-08-01T07:07:22.749Z,1005.9
2017-08-01T07:08:22.730Z,1005.92
2017-08-01T07:09:22.728Z,1005.91
2017-08-01T07:10:22.718Z,1005.92
2017-08-01T07:11:22.707Z,1005.9
2017-08-01T07:12:22.699Z,1005.85
2017-08-01T07:13:22.691Z,1005.9
2017-08-01T07:14:22.683Z,1005.89
2017-08-01T07:15:22.676Z,1005.95
2017-08-01T07:16:22.666Z,1005.97
2017-08-01T07:17:22.661Z,1005.98
2017-08-01T07:18:22.656Z,1005.96
2017-08-01T07:19:22.642Z,1005.95
2017-08-01T07:20:22.634Z,1005.95
2017-08-01T07:21:22.632Z,1005.97
2017-08-01T07:22:22.621Z,1006.03
2017-08-01T07:23:22.613Z,1006.07
2017-08-01T07:24:22.606Z,1006.1
2017-08-01T07:25:22.597Z,1006.14
2017-08-01T07:26:22.590Z,1006.13
2017-08-01T07:27:22.581Z,1006.17
2017-08-01T07:28:22.574Z,1006.22
2017-08-01T07:29:22.568Z,1006.19
2017-08-01T07:30:22.557Z,1006.22
2017-08-01T07:31:22.553Z,1006.26
2017-08-01T07:32:22.544Z,1006.3
2017-08-01T07:33:22.535Z,1006.38
2017-08-01T07:34:22.527Z,1006.38
2017-08-01T07:35:22.520Z,1006.42
2017-08-01T07:36:22.513Z,1006.38
2017-08-01T07:37:22.506Z,1006.39
2017-08-01T07:38:22.501Z,1006.49
2017-08-01T07:39:22.493Z,1006.49
2017-08-01T07:40:22.484Z,1006.37
2017-08-01T07:41:22.475Z,1006.49
2017-08-01T07:42:22.471Z,1006.48
2017-08-01T07:43:22.463Z,1006.47
2017-08-01T07:44:22.457Z,1006.47
2017-08-01T07:45:22.450Z,1006.45
2017-08-01T07:46:22.442Z,1006.44
2017-08-01T07:47:22.436Z,1006.38
2017-08-01T07:48:22.429Z,1006.43
2017-08-01T07:49:22.425Z,1006.48
2017-08-01T07:50:22.424Z,1006.49
2017-08-01T07:51:22.410Z,1006.51
2017-08-01T07:52:22.405Z,1006.49
2017-08-01T07:53:22.395Z,1006.49
2017-08-01T07:54:22.392Z,1006.48
2017-08-01T07:55:22.384Z,1006.52
2017-08-01T07:56:22.375Z,1006.45
2017-08-01T07:57:22.370Z,1006.44
2017-08-01T07:58:22.363Z,1006.41
2017-08-01T07:59:22.357Z,1006.4
2017-08-01T08:00:22.350Z,1006.35
2017-08-01T08:01:22.342Z,1006.3
2017-08-01T08:02:22.339Z,1006.23
2017-08-01T08:03:22.381Z,1006.22
2017-08-01T08:04:22.325Z,1006.16
2017-08-01T08:05:22.317Z,1006.14
2017-08-01T08:06:22.311Z,1006.17
2017-08-01T08:07:22.302Z,1006.19
2017-08-01T08:08:22.345Z,1006.27
2017-08-01T08:09:22.290Z,1006.26
2017-08-01T08:10:22.283Z,1006.32
2017-08-01T08:11:22.276Z,1006.33
2017-08-01T08:12:22.270Z,1006.33
2017-08-01T08:13:22.264Z,1006.38
2017-08-01T08:14:22.254Z,1006.37
2017-08-01T08:15:22.256Z,1006.38
2017-08-01T08:16:22.243Z,1006.3
2017-08-01T08:17:22.236Z,1006.35
2017-08-01T08:18:22.230Z,1006.3
2017-08-01T08:19:22.221Z,1006.25
2017-08-01T08:20:22.219Z,1006.16
2017-08-01T08:21:22.208Z,1006.14
2017-08-01T08:22:22.205Z,1006.1
2017-08-01T08:23:22.200Z,1006.08
2017-08-01T08:24:22.189Z,1006.07
2017-08-01T08:25:22.385Z,1006.1
2017-08-01T08:26:22.176Z,1006.07
2017-08-01T08:27:22.170Z,1006.09
2017-08-01T08:28:22.164Z,1006.12
2017-08-01T08:29:22.157Z,1006.12
2017-08-01T08:30:22.150Z,1006.15
2017-08-01T08:31:22.144Z,1006.24
2017-08-01T08:32:22.141Z,1006.25
2017-08-01T08:33:22.130Z,1006.29
2017-08-01T08:34:22.126Z,1006.29
2017-08-01T08:35:22.117Z,1006.31
2017-08-01T08:36:22.111Z,1006.3
2017-08-01T08:37:22.105Z,1006.32
2017-08-01T08:38:22.108Z,1006.3
2017-08-01T08:39:22.094Z,1006.34
2017-08-01T08:40:22.087Z,1006.37
2017-08-01T08:41:22.079Z,1006.36
2017-08-01T08:42:22.073Z,1006.38
2017-08-01T08:43:22.066Z,1006.35
2017-08-01T08:44:22.062Z,1006.34
2017-08-01T08:45:22.053Z,1006.3
2017-08-01T08:46:22.047Z,1006.25
2017-08-01T08:47:22.039Z,1006.25
2017-08-01T08:48:22.037Z,1006.22
2017-08-01T08:49:22.030Z,1006.27
2017-08-01T08:50:22.023Z,1006.3
2017-08-01T08:51:22.016Z,1006.32
2017-08-01T08:52:22.008Z,1006.34
2017-08-01T08:53:22.001Z,1006.37
2017-08-01T08:54:21.996Z,1006.41
2017-08-01T08:55:21.990Z,1006.4
2017-08-01T08:56:21.982Z,1006.45
2017-08-01T08:57:21.977Z,1006.48
2017-08-01T08:58:21.970Z,1006.5
2017-08-01T08:59:21.966Z,1006.54
2017-08-01T09:00:21.958Z,1006.61
2017-08-01T09:01:21.952Z,1006.64
2017-08-01T09:02:21.947Z,1006.68
2017-08-01T09:03:21.940Z,1006.71
2017-08-01T09:04:21.933Z,1006.76
2017-08-01T09:05:21.927Z,1006.79
2017-08-01T09:06:21.922Z,1006.76
2017-08-01T09:07:21.915Z,1006.82
2017-08-01T09:08:21.909Z,1006.85
2017-08-01T09:09:21.900Z,1006.87
2017-08-01T09:10:21.897Z,1006.8
2017-08-01T09:11:21.890Z,1006.79
2017-08-01T09:12:21.885Z,1006.81
2017-08-01T09:13:21.876Z,1006.8
2017-08-01T09:14:21.872Z,1006.76
2017-08-01T09:15:21.864Z,1006.72
2017-08-01T09:16:21.856Z,1006.65
2017-08-01T09:17:21.875Z,1006.64
2017-08-01T09:18:21.845Z,1006.66
2017-08-01T09:19:21.838Z,1006.7
2017-08-01T09:20:21.832Z,1006.68
2017-08-01T09:21:21.823Z,1006.67
2017-08-01T09:22:21.820Z,1006.61
2017-08-01T09:23:22.012Z,1006.58
2017-08-01T09:24:21.803Z,1006.48
2017-08-01T09:25:21.798Z,1006.43
2017-08-01T09:26:21.792Z,1006.33
2017-08-01T09:27:21.783Z,1006.21
2017-08-01T09:28:21.777Z,1006.08
2017-08-01T09:29:21.771Z,1005.93
2017-08-01T09:30:21.766Z,1005.72
2017-08-01T09:31:21.758Z,1005.48
2017-08-01T09:32:21.751Z,1005.37
2017-08-01T09:33:21.743Z,1005.28
2017-08-01T09:34:21.735Z,1005.29
2017-08-01T09:35:21.733Z,1005.33
2017-08-01T09:36:21.724Z,1005.47
2017-08-01T09:37:21.716Z,1005.49
2017-08-01T09:38:21.708Z,1005.59
2017-08-01T09:39:21.709Z,1005.63
2017-08-01T09:40:21.695Z,1005.61
2017-08-01T09:41:21.688Z,1005.6
2017-08-01T09:42:21.680Z,1005.58
2017-08-01T09:43:21.675Z,1005.57
2017-08-01T09:44:21.679Z,1005.67
2017-08-01T09:45:21.661Z,1005.75
2017-08-01T09:46:21.660Z,1005.78
2017-08-01T09:47:21.653Z,1005.82
2017-08-01T09:48:21.641Z,1005.81
2017-08-01T09:49:21.684Z,1005.81
2017-08-01T09:50:21.631Z,1005.79
2017-08-01T09:51:21.621Z,1005.85
2017-08-01T09:52:21.615Z,1005.88
2017-08-01T09:53:21.609Z,1005.85
2017-08-01T09:54:21.601Z,1005.86
2017-08-01T09:55:21.593Z,1005.91
2017-08-01T09:56:21.587Z,1005.87
2017-08-01T09:57:21.583Z,1005.91
2017-08-01T09:58:21.581Z,1005.96
2017-08-01T09:59:21.569Z,1005.9
2017-08-01T10:00:21.563Z,1005.89
2017-08-01T10:01:21.557Z,1005.93
2017-08-01T10:02:21.551Z,1006.01
2017-08-01T10:03:21.543Z,1006.08
2017-08-01T10:04:21.538Z,1006.15
2017-08-01T10:05:21.531Z,1006.18
2017-08-01T10:06:21.526Z,1006.22
2017-08-01T10:07:21.520Z,1006.28
2017-08-01T10:08:21.513Z,1006.37
2017-08-01T10:09:21.507Z,1006.43
2017-08-01T10:10:21.501Z,1006.5
2017-08-01T10:11:21.495Z,1006.62
2017-08-01T10:12:21.489Z,1006.65
2017-08-01T10:13:21.482Z,1006.68
2017-08-01T10:14:21.476Z,1006.65
2017-08-01T10:15:21.469Z,1006.67
2017-08-01T10:16:21.466Z,1006.65
2017-08-01T10:17:21.459Z,1006.57
2017-08-01T10:18:21.451Z,1006.55
2017-08-01T10:19:21.445Z,1006.56
2017-08-01T10:20:21.441Z,1006.5
2017-08-01T10:21:21.435Z,1006.57
2017-08-01T10:22:21.427Z,1006.56
2017-08-01T10:23:21.426Z,1006.32
2017-08-01T10:24:21.419Z,1006.28
2017-08-01T10:25:21.410Z,1006.33
2017-08-01T10:26:21.405Z,1006.39
2017-08-01T10:27:21.399Z,1006.39
2017-08-01T10:28:21.396Z,1006.15
2017-08-01T10:29:21.392Z,1006.24
2017-08-01T10:30:21.385Z,1006.24
2017-08-01T10:31:21.384Z,1006.27
2017-08-01T10:32:21.378Z,1006.55
2017-08-01T10:33:21.373Z,1006.39
2017-08-01T10:34:21.367Z,1006.7
2017-08-01T10:35:21.364Z,1006.67
2017-08-01T10:36:21.359Z,1006.67
2017-08-01T10:37:21.355Z,1006.58
2017-08-01T10:38:21.353Z,1006.59
2017-08-01T10:39:21.352Z,1006.65
2017-08-01T10:40:21.350Z,1006.74
2017-08-01T10:41:21.345Z,1006.77
2017-08-01T10:42:21.344Z,1006.61
2017-08-01T10:43:21.342Z,1006.62
2017-08-01T10:44:21.342Z,1006.56
2017-08-01T10:45:21.348Z,1006.68
2017-08-01T10:46:21.343Z,1006.66
2017-08-01T10:47:21.338Z,1006.67
2017-08-01T10:48:21.337Z,1006.63
2017-08-01T10:49:21.337Z,1006.75
2017-08-01T10:50:21.333Z,1006.74
2017-08-01T10:51:21.332Z,1006.8
2017-08-01T10:52:21.329Z,1006.87
2017-08-01T10:53:21.326Z,1006.86
2017-08-01T10:54:21.326Z,1006.86
2017-08-01T10:55:21.321Z,1006.91
2017-08-01T10:56:21.318Z,1006.95
2017-08-01T10:57:21.315Z,1006.96
2017-08-01T10:58:21.313Z,1006.99
2017-08-01T10:59:21.308Z,1006.91
2017-08-01T11:00:21.308Z,1006.95
2017-08-01T11:01:21.305Z,1006.88
2017-08-01T11:02:21.296Z,1006.94
2017-08-01T11:03:21.291Z,1007.03
2017-08-01T11:04:21.288Z,1007.06
2017-08-01T11:05:21.284Z,1007.01
2017-08-01T11:06:21.278Z,1007.02
2017-08-01T11:07:21.273Z,1007.01
2017-08-01T11:08:21.278Z,1007
2017-08-01T11:09:21.264Z,1007.01
2017-08-01T11:10:21.262Z,1006.95
2017-08-01T11:11:21.260Z,1006.91
2017-08-01T11:12:21.255Z,1006.99
2017-08-01T11:13:21.243Z,1006.92
2017-08-01T11:14:21.245Z,1006.96
2017-08-01T11:15:21.248Z,1007.04
2017-08-01T11:16:21.231Z,1006.98
2017-08-01T11:17:21.225Z,1006.96
2017-08-01T11:18:21.221Z,1006.96
2017-08-01T11:19:21.229Z,1007.03
2017-08-01T11:20:21.214Z,1007.12
2017-08-01T11:21:21.209Z,1007.08
2017-08-01T11:22:21.202Z,1007.11
2017-08-01T11:23:21.401Z,1007.19
2017-08-01T11:24:21.202Z,1007.2
2017-08-01T11:25:21.191Z,1007.16
2017-08-01T11:26:21.191Z,1007.14
2017-08-01T11:27:21.184Z,1007.17
2017-08-01T11:28:21.181Z,1007.23
2017-08-01T11:29:21.176Z,1007.16
2017-08-01T11:30:21.174Z,1007.15
2017-08-01T11:31:21.168Z,1007.15
2017-08-01T11:32:21.168Z,1007.16
2017-08-01T11:33:21.162Z,1007.2
2017-08-01T11:34:21.158Z,1007.19
2017-08-01T11:35:21.156Z,1007.25
2017-08-01T11:36:21.153Z,1007.29
2017-08-01T11:37:21.148Z,1007.34
2017-08-01T11:38:21.146Z,1007.27
2017-08-01T11:39:21.142Z,1007.34
2017-08-01T11:40:21.135Z,1007.33
2017-08-01T11:42:21.128Z,1007.35
2017-08-01T11:43:21.125Z,1007.32
2017-08-01T11:44:21.121Z,1007.32
2017-08-01T11:45:21.116Z,1007.35
2017-08-01T11:46:21.110Z,1007.41
2017-08-01T11:47:21.107Z,1007.4
2017-08-01T11:48:21.101Z,1007.37
2017-08-01T11:49:21.098Z,1007.36
2017-08-01T11:50:21.092Z,1007.38
2017-08-01T11:51:21.089Z,1007.37
2017-08-01T11:52:21.084Z,1007.43
2017-08-01T11:53:21.081Z,1007.39
2017-08-01T11:54:21.074Z,1007.42
2017-08-01T11:55:21.070Z,1007.41
2017-08-01T11:56:21.061Z,1007.36
2017-08-01T11:57:21.057Z,1007.31
2017-08-01T11:58:21.053Z,1007.24
2017-08-01T11:59:21.047Z,1007.21
2017-08-01T12:00:21.043Z,1007.24
2017-08-01T12:01:21.036Z,1007.19
2017-08-01T12:02:21.034Z,1007.18
2017-08-01T12:03:21.026Z,1007.17
2017-08-01T12:04:21.024Z,1007.22
2017-08-01T12:05:21.019Z,1007.22
2017-08-01T12:06:21.011Z,1007.22
2017-08-01T12:07:21.005Z,1007.2
2017-08-01T12:08:21.000Z,1007.19
2017-08-01T12:09:20.992Z,1007.17